sensor_id;sensor_type;location;lat;lon;timestamp;temperature;humidity
5868;DHT22;2960;49.142;7.768;2022-08-21T00:02:01;18.70;52.90
5868;DHT22;2960;49.142;7.768;2022-08-21T00:04:29;18.70;53.00
5868;DHT22;2960;49.142;7.768;2022-08-21T00:06:56;18.70;53.10
5868;DHT22;2960;49.142;7.768;2022-08-21T00:09:24;18.70;53.20
5868;DHT22;2960;49.142;7.768;2022-08-21T00:11:51;18.70;53.30
5868;DHT22;2960;49.142;7.768;2022-08-21T00:14:18;18.60;53.20
5868;DHT22;2960;49.142;7.768;2022-08-21T00:16:47;18.60;53.30
5868;DHT22;2960;49.142;7.768;2022-08-21T00:19:14;18.50;53.30
5868;DHT22;2960;49.142;7.768;2022-08-21T00:21:41;18.50;53.30
5868;DHT22;2960;49.142;7.768;2022-08-21T00:24:08;18.50;53.50
5868;DHT22;2960;49.142;7.768;2022-08-21T00:26:35;18.40;53.50
5868;DHT22;2960;49.142;7.768;2022-08-21T00:29:03;18.40;53.60
5868;DHT22;2960;49.142;7.768;2022-08-21T00:31:30;18.40;53.60
5868;DHT22;2960;49.142;7.768;2022-08-21T00:34:00;18.30;53.60
5868;DHT22;2960;49.142;7.768;2022-08-21T00:36:27;18.30;53.70
5868;DHT22;2960;49.142;7.768;2022-08-21T00:38:55;18.30;53.80
5868;DHT22;2960;49.142;7.768;2022-08-21T00:41:22;18.30;53.80
5868;DHT22;2960;49.142;7.768;2022-08-21T00:43:50;18.20;53.80
5868;DHT22;2960;49.142;7.768;2022-08-21T00:46:17;18.20;54.00
5868;DHT22;2960;49.142;7.768;2022-08-21T00:48:44;18.20;54.10
5868;DHT22;2960;49.142;7.768;2022-08-21T00:51:17;18.10;54.10
5868;DHT22;2960;49.142;7.768;2022-08-21T00:53:53;18.10;54.20
5868;DHT22;2960;49.142;7.768;2022-08-21T00:56:21;18.00;54.20
5868;DHT22;2960;49.142;7.768;2022-08-21T00:58:49;18.00;54.30
5868;DHT22;2960;49.142;7.768;2022-08-21T01:01:18;17.90;54.30
5868;DHT22;2960;49.142;7.768;2022-08-21T01:03:46;17.90;54.50
5868;DHT22;2960;49.142;7.768;2022-08-21T01:06:15;17.80;54.50
5868;DHT22;2960;49.142;7.768;2022-08-21T01:08:43;17.80;54.60
5868;DHT22;2960;49.142;7.768;2022-08-21T01:11:10;17.80;54.70
5868;DHT22;2960;49.142;7.768;2022-08-21T01:13:37;17.70;54.60
5868;DHT22;2960;49.142;7.768;2022-08-21T01:16:12;17.70;54.70
5868;DHT22;2960;49.142;7.768;2022-08-21T01:18:41;17.70;54.80
5868;DHT22;2960;49.142;7.768;2022-08-21T01:21:12;17.60;54.80
5868;DHT22;2960;49.142;7.768;2022-08-21T01:23:42;17.60;54.80
5868;DHT22;2960;49.142;7.768;2022-08-21T01:26:11;17.60;54.90
5868;DHT22;2960;49.142;7.768;2022-08-21T01:28:44;17.60;55.00
5868;DHT22;2960;49.142;7.768;2022-08-21T01:31:15;17.50;55.10
5868;DHT22;2960;49.142;7.768;2022-08-21T01:33:44;17.50;55.20
5868;DHT22;2960;49.142;7.768;2022-08-21T01:36:13;17.50;55.20
5868;DHT22;2960;49.142;7.768;2022-08-21T01:38:40;17.40;55.20
5868;DHT22;2960;49.142;7.768;2022-08-21T01:41:07;17.40;55.20
5868;DHT22;2960;49.142;7.768;2022-08-21T01:43:34;17.40;55.30
5868;DHT22;2960;49.142;7.768;2022-08-21T01:46:02;17.30;55.30
5868;DHT22;2960;49.142;7.768;2022-08-21T01:48:29;17.30;55.40
5868;DHT22;2960;49.142;7.768;2022-08-21T01:50:56;17.30;55.40
5868;DHT22;2960;49.142;7.768;2022-08-21T01:53:25;17.30;55.50
5868;DHT22;2960;49.142;7.768;2022-08-21T01:55:53;17.20;55.50
5868;DHT22;2960;49.142;7.768;2022-08-21T01:58:20;17.20;55.50
5868;DHT22;2960;49.142;7.768;2022-08-21T02:00:47;17.20;55.60
5868;DHT22;2960;49.142;7.768;2022-08-21T02:03:14;17.10;55.60
5868;DHT22;2960;49.142;7.768;2022-08-21T02:05:42;17.10;55.70
5868;DHT22;2960;49.142;7.768;2022-08-21T02:08:09;17.10;55.80
5868;DHT22;2960;49.142;7.768;2022-08-21T02:10:37;17.00;55.80
5868;DHT22;2960;49.142;7.768;2022-08-21T02:13:06;17.00;55.80
5868;DHT22;2960;49.142;7.768;2022-08-21T02:15:34;17.00;55.90
5868;DHT22;2960;49.142;7.768;2022-08-21T02:18:04;17.00;55.90
5868;DHT22;2960;49.142;7.768;2022-08-21T02:20:34;16.90;55.90
5868;DHT22;2960;49.142;7.768;2022-08-21T02:23:03;16.80;55.90
5868;DHT22;2960;49.142;7.768;2022-08-21T02:25:31;16.90;56.00
5868;DHT22;2960;49.142;7.768;2022-08-21T02:28:04;16.90;56.10
5868;DHT22;2960;49.142;7.768;2022-08-21T02:30:38;16.90;56.10
5868;DHT22;2960;49.142;7.768;2022-08-21T02:33:08;16.80;56.10
5868;DHT22;2960;49.142;7.768;2022-08-21T02:35:36;16.80;56.30
5868;DHT22;2960;49.142;7.768;2022-08-21T02:38:07;16.70;56.90
5868;DHT22;2960;49.142;7.768;2022-08-21T02:40:38;16.70;56.40
5868;DHT22;2960;49.142;7.768;2022-08-21T02:43:07;16.70;56.50
5868;DHT22;2960;49.142;7.768;2022-08-21T02:45:36;16.60;56.50
5868;DHT22;2960;49.142;7.768;2022-08-21T02:48:06;16.60;56.60
5868;DHT22;2960;49.142;7.768;2022-08-21T02:50:37;16.60;56.60
5868;DHT22;2960;49.142;7.768;2022-08-21T02:53:08;16.50;56.60
5868;DHT22;2960;49.142;7.768;2022-08-21T02:55:37;16.50;56.70
5868;DHT22;2960;49.142;7.768;2022-08-21T02:58:07;16.50;56.80
5868;DHT22;2960;49.142;7.768;2022-08-21T03:00:37;16.50;56.90
5868;DHT22;2960;49.142;7.768;2022-08-21T03:03:04;16.40;56.90
5868;DHT22;2960;49.142;7.768;2022-08-21T03:05:33;16.40;57.00
5868;DHT22;2960;49.142;7.768;2022-08-21T03:08:05;16.40;57.00
5868;DHT22;2960;49.142;7.768;2022-08-21T03:10:35;16.40;57.00
5868;DHT22;2960;49.142;7.768;2022-08-21T03:13:02;16.30;57.00
5868;DHT22;2960;49.142;7.768;2022-08-21T03:15:31;16.30;57.10
5868;DHT22;2960;49.142;7.768;2022-08-21T03:17:58;16.20;57.10
5868;DHT22;2960;49.142;7.768;2022-08-21T03:20:27;16.20;57.10
5868;DHT22;2960;49.142;7.768;2022-08-21T03:22:56;16.20;57.20
5868;DHT22;2960;49.142;7.768;2022-08-21T03:25:26;16.20;57.30
5868;DHT22;2960;49.142;7.768;2022-08-21T03:27:53;16.10;57.20
5868;DHT22;2960;49.142;7.768;2022-08-21T03:30:21;16.10;57.20
5868;DHT22;2960;49.142;7.768;2022-08-21T03:32:50;16.10;57.20
5868;DHT22;2960;49.142;7.768;2022-08-21T03:35:18;16.10;57.30
5868;DHT22;2960;49.142;7.768;2022-08-21T03:37:46;16.10;57.30
5868;DHT22;2960;49.142;7.768;2022-08-21T03:40:16;16.00;57.20
5868;DHT22;2960;49.142;7.768;2022-08-21T03:42:44;16.00;57.30
5868;DHT22;2960;49.142;7.768;2022-08-21T03:45:13;16.00;57.30
5868;DHT22;2960;49.142;7.768;2022-08-21T03:47:52;16.00;57.40
5868;DHT22;2960;49.142;7.768;2022-08-21T03:50:21;16.00;57.40
5868;DHT22;2960;49.142;7.768;2022-08-21T03:52:49;15.90;57.50
5868;DHT22;2960;49.142;7.768;2022-08-21T03:55:17;15.90;57.60
5868;DHT22;2960;49.142;7.768;2022-08-21T03:57:44;15.90;57.60
5868;DHT22;2960;49.142;7.768;2022-08-21T04:00:13;15.90;57.70
5868;DHT22;2960;49.142;7.768;2022-08-21T04:02:41;15.90;57.80
5868;DHT22;2960;49.142;7.768;2022-08-21T04:05:14;15.80;57.80
5868;DHT22;2960;49.142;7.768;2022-08-21T04:07:53;15.80;57.90
5868;DHT22;2960;49.142;7.768;2022-08-21T04:10:21;15.70;57.80
5868;DHT22;2960;49.142;7.768;2022-08-21T04:12:49;15.70;57.90
5868;DHT22;2960;49.142;7.768;2022-08-21T04:15:16;15.70;57.90
5868;DHT22;2960;49.142;7.768;2022-08-21T04:17:43;15.60;57.90
5868;DHT22;2960;49.142;7.768;2022-08-21T04:20:12;15.60;57.90
5868;DHT22;2960;49.142;7.768;2022-08-21T04:22:39;15.60;58.00
5868;DHT22;2960;49.142;7.768;2022-08-21T04:25:07;15.60;58.20
5868;DHT22;2960;49.142;7.768;2022-08-21T04:27:34;15.50;58.10
5868;DHT22;2960;49.142;7.768;2022-08-21T04:30:02;15.50;58.10
5868;DHT22;2960;49.142;7.768;2022-08-21T04:32:30;15.50;58.20
5868;DHT22;2960;49.142;7.768;2022-08-21T04:34:59;15.50;58.10
5868;DHT22;2960;49.142;7.768;2022-08-21T04:37:28;15.50;58.20
5868;DHT22;2960;49.142;7.768;2022-08-21T04:39:55;15.40;58.20
5868;DHT22;2960;49.142;7.768;2022-08-21T04:42:23;15.40;58.20
5868;DHT22;2960;49.142;7.768;2022-08-21T04:44:50;15.40;58.30
5868;DHT22;2960;49.142;7.768;2022-08-21T04:47:18;15.40;58.40
5868;DHT22;2960;49.142;7.768;2022-08-21T04:49:45;15.40;58.40
5868;DHT22;2960;49.142;7.768;2022-08-21T04:52:16;15.30;58.40
5868;DHT22;2960;49.142;7.768;2022-08-21T04:54:46;15.30;58.40
5868;DHT22;2960;49.142;7.768;2022-08-21T04:57:15;15.30;58.40
5868;DHT22;2960;49.142;7.768;2022-08-21T04:59:45;15.30;58.40
5868;DHT22;2960;49.142;7.768;2022-08-21T05:02:14;15.30;58.40
5868;DHT22;2960;49.142;7.768;2022-08-21T05:04:47;15.30;58.50
5868;DHT22;2960;49.142;7.768;2022-08-21T05:07:20;15.30;58.50
5868;DHT22;2960;49.142;7.768;2022-08-21T05:09:51;15.30;58.50
5868;DHT22;2960;49.142;7.768;2022-08-21T05:12:18;15.30;58.60
5868;DHT22;2960;49.142;7.768;2022-08-21T05:14:46;15.30;58.60
5868;DHT22;2960;49.142;7.768;2022-08-21T05:17:13;15.30;58.70
5868;DHT22;2960;49.142;7.768;2022-08-21T05:19:41;15.40;59.10
5868;DHT22;2960;49.142;7.768;2022-08-21T05:22:08;15.40;58.80
5868;DHT22;2960;49.142;7.768;2022-08-21T05:24:35;15.40;58.80
5868;DHT22;2960;49.142;7.768;2022-08-21T05:27:05;15.40;58.80
5868;DHT22;2960;49.142;7.768;2022-08-21T05:29:32;15.40;58.80
5868;DHT22;2960;49.142;7.768;2022-08-21T05:32:00;15.40;58.80
5868;DHT22;2960;49.142;7.768;2022-08-21T05:34:27;15.50;58.90
5868;DHT22;2960;49.142;7.768;2022-08-21T05:36:54;15.60;58.90
5868;DHT22;2960;49.142;7.768;2022-08-21T05:39:21;15.60;58.90
5868;DHT22;2960;49.142;7.768;2022-08-21T05:41:48;15.70;58.90
5868;DHT22;2960;49.142;7.768;2022-08-21T05:44:17;15.70;58.90
5868;DHT22;2960;49.142;7.768;2022-08-21T05:46:44;15.80;58.90
5868;DHT22;2960;49.142;7.768;2022-08-21T05:49:11;15.90;58.90
5868;DHT22;2960;49.142;7.768;2022-08-21T05:51:40;15.90;58.90
5868;DHT22;2960;49.142;7.768;2022-08-21T05:54:07;16.00;58.90
5868;DHT22;2960;49.142;7.768;2022-08-21T05:56:34;16.10;58.90
5868;DHT22;2960;49.142;7.768;2022-08-21T05:59:02;16.10;58.90
5868;DHT22;2960;49.142;7.768;2022-08-21T06:01:30;16.20;58.90
5868;DHT22;2960;49.142;7.768;2022-08-21T06:03:57;16.30;59.00
5868;DHT22;2960;49.142;7.768;2022-08-21T06:06:24;16.40;58.90
5868;DHT22;2960;49.142;7.768;2022-08-21T06:08:52;16.60;59.00
5868;DHT22;2960;49.142;7.768;2022-08-21T06:11:19;16.70;58.90
5868;DHT22;2960;49.142;7.768;2022-08-21T06:13:46;16.80;58.80
5868;DHT22;2960;49.142;7.768;2022-08-21T06:16:15;16.90;58.80
5868;DHT22;2960;49.142;7.768;2022-08-21T06:18:44;17.10;58.80
5868;DHT22;2960;49.142;7.768;2022-08-21T06:21:12;17.20;58.80
5868;DHT22;2960;49.142;7.768;2022-08-21T06:23:40;17.30;58.70
5868;DHT22;2960;49.142;7.768;2022-08-21T06:26:08;17.40;58.70
5868;DHT22;2960;49.142;7.768;2022-08-21T06:28:38;17.50;58.70
5868;DHT22;2960;49.142;7.768;2022-08-21T06:31:11;17.60;58.70
5868;DHT22;2960;49.142;7.768;2022-08-21T06:33:40;17.70;58.60
5868;DHT22;2960;49.142;7.768;2022-08-21T06:36:09;17.90;58.60
5868;DHT22;2960;49.142;7.768;2022-08-21T06:38:36;18.00;58.60
5868;DHT22;2960;49.142;7.768;2022-08-21T06:41:04;18.10;58.60
5868;DHT22;2960;49.142;7.768;2022-08-21T06:43:31;18.20;58.50
5868;DHT22;2960;49.142;7.768;2022-08-21T06:45:59;18.20;58.40
5868;DHT22;2960;49.142;7.768;2022-08-21T06:48:26;18.30;58.40
5868;DHT22;2960;49.142;7.768;2022-08-21T06:50:53;18.50;58.60
5868;DHT22;2960;49.142;7.768;2022-08-21T06:53:22;18.60;58.60
5868;DHT22;2960;49.142;7.768;2022-08-21T06:55:49;18.70;58.50
5868;DHT22;2960;49.142;7.768;2022-08-21T06:58:17;18.80;58.40
5868;DHT22;2960;49.142;7.768;2022-08-21T07:00:47;19.00;58.50
5868;DHT22;2960;49.142;7.768;2022-08-21T07:03:20;19.10;58.40
5868;DHT22;2960;49.142;7.768;2022-08-21T07:05:48;19.20;58.30
5868;DHT22;2960;49.142;7.768;2022-08-21T07:08:16;19.30;58.30
5868;DHT22;2960;49.142;7.768;2022-08-21T07:10:45;19.50;58.30
5868;DHT22;2960;49.142;7.768;2022-08-21T07:13:13;19.60;58.20
5868;DHT22;2960;49.142;7.768;2022-08-21T07:15:40;19.70;58.10
5868;DHT22;2960;49.142;7.768;2022-08-21T07:18:07;19.90;58.00
5868;DHT22;2960;49.142;7.768;2022-08-21T07:20:34;20.00;57.90
5868;DHT22;2960;49.142;7.768;2022-08-21T07:23:04;20.10;57.80
5868;DHT22;2960;49.142;7.768;2022-08-21T07:25:34;20.30;57.80
5868;DHT22;2960;49.142;7.768;2022-08-21T07:28:02;20.40;57.60
5868;DHT22;2960;49.142;7.768;2022-08-21T07:30:30;20.50;57.60
5868;DHT22;2960;49.142;7.768;2022-08-21T07:32:58;20.70;57.50
5868;DHT22;2960;49.142;7.768;2022-08-21T07:35:25;20.80;57.40
5868;DHT22;2960;49.142;7.768;2022-08-21T07:37:53;20.90;57.20
5868;DHT22;2960;49.142;7.768;2022-08-21T07:40:20;21.10;57.20
5868;DHT22;2960;49.142;7.768;2022-08-21T07:42:48;21.20;57.00
5868;DHT22;2960;49.142;7.768;2022-08-21T07:45:20;21.30;56.90
5868;DHT22;2960;49.142;7.768;2022-08-21T07:47:50;21.50;56.80
5868;DHT22;2960;49.142;7.768;2022-08-21T07:50:18;21.60;56.70
5868;DHT22;2960;49.142;7.768;2022-08-21T07:52:45;21.70;56.50
5868;DHT22;2960;49.142;7.768;2022-08-21T07:55:16;21.90;56.50
5868;DHT22;2960;49.142;7.768;2022-08-21T07:57:46;22.00;56.30
5868;DHT22;2960;49.142;7.768;2022-08-21T08:00:16;22.20;56.20
5868;DHT22;2960;49.142;7.768;2022-08-21T08:02:48;22.30;55.90
5868;DHT22;2960;49.142;7.768;2022-08-21T08:05:19;22.50;55.80
5868;DHT22;2960;49.142;7.768;2022-08-21T08:07:48;22.60;55.60
5868;DHT22;2960;49.142;7.768;2022-08-21T08:10:16;22.80;55.40
5868;DHT22;2960;49.142;7.768;2022-08-21T08:12:45;22.90;55.20
5868;DHT22;2960;49.142;7.768;2022-08-21T08:15:15;23.10;55.10
5868;DHT22;2960;49.142;7.768;2022-08-21T08:17:49;23.30;55.00
5868;DHT22;2960;49.142;7.768;2022-08-21T08:20:17;23.40;54.70
5868;DHT22;2960;49.142;7.768;2022-08-21T08:22:45;23.60;54.60
5868;DHT22;2960;49.142;7.768;2022-08-21T08:25:14;23.80;54.40
5868;DHT22;2960;49.142;7.768;2022-08-21T08:27:42;23.90;54.20
5868;DHT22;2960;49.142;7.768;2022-08-21T08:30:12;24.10;54.20
5868;DHT22;2960;49.142;7.768;2022-08-21T08:32:41;24.20;53.90
5868;DHT22;2960;49.142;7.768;2022-08-21T08:35:10;24.40;53.70
5868;DHT22;2960;49.142;7.768;2022-08-21T08:37:38;24.50;54.00
5868;DHT22;2960;49.142;7.768;2022-08-21T08:40:09;24.60;53.10
5868;DHT22;2960;49.142;7.768;2022-08-21T08:42:38;24.80;53.00
5868;DHT22;2960;49.142;7.768;2022-08-21T08:45:08;24.90;52.70
5868;DHT22;2960;49.142;7.768;2022-08-21T08:47:43;25.00;52.30
5868;DHT22;2960;49.142;7.768;2022-08-21T08:50:17;25.10;52.00
5868;DHT22;2960;49.142;7.768;2022-08-21T08:52:49;25.30;51.80
5868;DHT22;2960;49.142;7.768;2022-08-21T08:55:21;25.40;51.30
5868;DHT22;2960;49.142;7.768;2022-08-21T08:57:54;25.50;51.10
5868;DHT22;2960;49.142;7.768;2022-08-21T09:00:23;25.60;50.90
5868;DHT22;2960;49.142;7.768;2022-08-21T09:02:54;25.80;50.70
5868;DHT22;2960;49.142;7.768;2022-08-21T09:05:25;25.90;50.40
5868;DHT22;2960;49.142;7.768;2022-08-21T09:08:14;26.00;50.20
5868;DHT22;2960;49.142;7.768;2022-08-21T09:10:59;26.20;49.90
5868;DHT22;2960;49.142;7.768;2022-08-21T09:13:39;26.30;49.70
5868;DHT22;2960;49.142;7.768;2022-08-21T09:16:18;26.50;49.60
5868;DHT22;2960;49.142;7.768;2022-08-21T09:18:58;26.60;49.40
5868;DHT22;2960;49.142;7.768;2022-08-21T09:21:38;26.70;49.10
5868;DHT22;2960;49.142;7.768;2022-08-21T09:24:20;26.80;48.90
5868;DHT22;2960;49.142;7.768;2022-08-21T09:27:05;26.90;48.70
5868;DHT22;2960;49.142;7.768;2022-08-21T09:29:36;27.00;48.50
5868;DHT22;2960;49.142;7.768;2022-08-21T09:32:11;27.10;48.40
5868;DHT22;2960;49.142;7.768;2022-08-21T09:34:55;27.20;48.20
5868;DHT22;2960;49.142;7.768;2022-08-21T09:37:25;27.30;48.00
5868;DHT22;2960;49.142;7.768;2022-08-21T09:39:55;27.50;47.90
5868;DHT22;2960;49.142;7.768;2022-08-21T09:42:25;27.50;47.60
5868;DHT22;2960;49.142;7.768;2022-08-21T09:45:11;27.70;47.40
5868;DHT22;2960;49.142;7.768;2022-08-21T09:47:41;27.80;47.20
5868;DHT22;2960;49.142;7.768;2022-08-21T09:50:15;27.90;46.90
5868;DHT22;2960;49.142;7.768;2022-08-21T09:52:46;28.00;46.70
5868;DHT22;2960;49.142;7.768;2022-08-21T09:55:19;28.10;46.30
5868;DHT22;2960;49.142;7.768;2022-08-21T09:58:05;28.30;46.20
5868;DHT22;2960;49.142;7.768;2022-08-21T10:00:34;28.40;45.60
5868;DHT22;2960;49.142;7.768;2022-08-21T10:03:11;28.50;45.40
5868;DHT22;2960;49.142;7.768;2022-08-21T10:05:50;28.60;44.90
5868;DHT22;2960;49.142;7.768;2022-08-21T10:08:23;28.70;44.70
5868;DHT22;2960;49.142;7.768;2022-08-21T10:10:55;28.80;44.40
5868;DHT22;2960;49.142;7.768;2022-08-21T10:13:37;28.80;44.00
5868;DHT22;2960;49.142;7.768;2022-08-21T10:16:27;29.00;43.90
5868;DHT22;2960;49.142;7.768;2022-08-21T10:19:10;29.10;43.80
5868;DHT22;2960;49.142;7.768;2022-08-21T10:21:54;29.10;43.60
5868;DHT22;2960;49.142;7.768;2022-08-21T10:24:31;29.20;43.30
5868;DHT22;2960;49.142;7.768;2022-08-21T10:27:14;29.30;43.20
5868;DHT22;2960;49.142;7.768;2022-08-21T10:29:50;29.40;43.10
5868;DHT22;2960;49.142;7.768;2022-08-21T10:32:40;29.40;42.90
5868;DHT22;2960;49.142;7.768;2022-08-21T10:35:21;29.40;42.80
5868;DHT22;2960;49.142;7.768;2022-08-21T10:38:07;29.30;42.70
5868;DHT22;2960;49.142;7.768;2022-08-21T10:40:59;29.20;42.60
5868;DHT22;2960;49.142;7.768;2022-08-21T10:43:41;29.00;42.70
5868;DHT22;2960;49.142;7.768;2022-08-21T10:46:17;28.90;42.70
5868;DHT22;2960;49.142;7.768;2022-08-21T10:48:54;28.80;42.80
5868;DHT22;2960;49.142;7.768;2022-08-21T10:51:34;28.70;42.80
5868;DHT22;2960;49.142;7.768;2022-08-21T10:54:10;28.60;42.80
5868;DHT22;2960;49.142;7.768;2022-08-21T10:56:43;28.50;42.90
5868;DHT22;2960;49.142;7.768;2022-08-21T10:59:25;28.40;42.90
5868;DHT22;2960;49.142;7.768;2022-08-21T11:02:00;28.40;42.80
5868;DHT22;2960;49.142;7.768;2022-08-21T11:04:34;28.40;42.70
5868;DHT22;2960;49.142;7.768;2022-08-21T11:07:10;28.50;42.60
5868;DHT22;2960;49.142;7.768;2022-08-21T11:09:48;28.60;42.50
5868;DHT22;2960;49.142;7.768;2022-08-21T11:12:24;28.60;42.20
5868;DHT22;2960;49.142;7.768;2022-08-21T11:14:56;28.70;42.10
5868;DHT22;2960;49.142;7.768;2022-08-21T11:17:31;28.80;42.10
5868;DHT22;2960;49.142;7.768;2022-08-21T11:20:05;28.90;41.90
5868;DHT22;2960;49.142;7.768;2022-08-21T11:22:39;29.00;41.80
5868;DHT22;2960;49.142;7.768;2022-08-21T11:25:14;29.10;41.70
5868;DHT22;2960;49.142;7.768;2022-08-21T11:27:47;29.20;41.40
5868;DHT22;2960;49.142;7.768;2022-08-21T11:30:17;29.20;41.30
5868;DHT22;2960;49.142;7.768;2022-08-21T11:33:01;29.30;41.20
5868;DHT22;2960;49.142;7.768;2022-08-21T11:35:39;29.30;41.10
5868;DHT22;2960;49.142;7.768;2022-08-21T11:38:22;29.40;41.00
5868;DHT22;2960;49.142;7.768;2022-08-21T11:41:12;29.40;40.80
5868;DHT22;2960;49.142;7.768;2022-08-21T11:43:47;29.40;40.70
5868;DHT22;2960;49.142;7.768;2022-08-21T11:46:29;29.40;40.60
5868;DHT22;2960;49.142;7.768;2022-08-21T11:49:17;29.40;40.50
5868;DHT22;2960;49.142;7.768;2022-08-21T11:51:58;29.30;40.20
5868;DHT22;2960;49.142;7.768;2022-08-21T11:54:37;29.20;40.20
5868;DHT22;2960;49.142;7.768;2022-08-21T11:57:14;29.20;40.30
5868;DHT22;2960;49.142;7.768;2022-08-21T11:59:48;29.30;40.30
5868;DHT22;2960;49.142;7.768;2022-08-21T12:02:24;29.30;40.20
5868;DHT22;2960;49.142;7.768;2022-08-21T12:04:58;29.30;40.10
5868;DHT22;2960;49.142;7.768;2022-08-21T12:07:34;29.30;40.10
5868;DHT22;2960;49.142;7.768;2022-08-21T12:10:06;29.30;40.00
5868;DHT22;2960;49.142;7.768;2022-08-21T12:12:37;29.30;40.00
5868;DHT22;2960;49.142;7.768;2022-08-21T12:15:24;29.40;40.10
5868;DHT22;2960;49.142;7.768;2022-08-21T12:17:55;29.30;39.90
5868;DHT22;2960;49.142;7.768;2022-08-21T12:21:00;29.30;39.80
5868;DHT22;2960;49.142;7.768;2022-08-21T12:23:31;29.30;39.70
5868;DHT22;2960;49.142;7.768;2022-08-21T12:26:15;29.40;39.70
5868;DHT22;2960;49.142;7.768;2022-08-21T12:28:49;29.40;39.50
5868;DHT22;2960;49.142;7.768;2022-08-21T12:31:23;29.50;39.40
5868;DHT22;2960;49.142;7.768;2022-08-21T12:33:55;29.50;39.40
5868;DHT22;2960;49.142;7.768;2022-08-21T12:36:27;29.50;39.20
5868;DHT22;2960;49.142;7.768;2022-08-21T12:39:05;29.50;39.10
5868;DHT22;2960;49.142;7.768;2022-08-21T12:41:45;29.50;39.00
5868;DHT22;2960;49.142;7.768;2022-08-21T12:44:17;29.60;39.10
5868;DHT22;2960;49.142;7.768;2022-08-21T12:46:52;29.60;39.00
5868;DHT22;2960;49.142;7.768;2022-08-21T12:49:27;29.70;38.90
5868;DHT22;2960;49.142;7.768;2022-08-21T12:52:09;29.70;38.70
5868;DHT22;2960;49.142;7.768;2022-08-21T12:54:39;29.90;38.60
5868;DHT22;2960;49.142;7.768;2022-08-21T12:57:17;29.90;38.40
5868;DHT22;2960;49.142;7.768;2022-08-21T12:59:45;30.00;38.30
5868;DHT22;2960;49.142;7.768;2022-08-21T13:02:18;30.10;38.20
5868;DHT22;2960;49.142;7.768;2022-08-21T13:04:48;30.20;38.00
5868;DHT22;2960;49.142;7.768;2022-08-21T13:07:22;30.20;37.70
5868;DHT22;2960;49.142;7.768;2022-08-21T13:09:57;30.20;37.60
5868;DHT22;2960;49.142;7.768;2022-08-21T13:12:27;30.20;37.60
5868;DHT22;2960;49.142;7.768;2022-08-21T13:14:57;30.10;37.40
5868;DHT22;2960;49.142;7.768;2022-08-21T13:17:27;30.00;37.30
5868;DHT22;2960;49.142;7.768;2022-08-21T13:19:59;29.90;37.20
5868;DHT22;2960;49.142;7.768;2022-08-21T13:22:28;29.90;37.30
5868;DHT22;2960;49.142;7.768;2022-08-21T13:24:55;29.80;36.70
5868;DHT22;2960;49.142;7.768;2022-08-21T13:27:25;29.70;36.40
5868;DHT22;2960;49.142;7.768;2022-08-21T13:30:07;29.70;36.60
5868;DHT22;2960;49.142;7.768;2022-08-21T13:32:41;29.70;36.60
5868;DHT22;2960;49.142;7.768;2022-08-21T13:35:11;29.70;36.60
5868;DHT22;2960;49.142;7.768;2022-08-21T13:37:43;29.70;36.60
5868;DHT22;2960;49.142;7.768;2022-08-21T13:40:15;29.60;36.40
5868;DHT22;2960;49.142;7.768;2022-08-21T13:42:46;29.60;36.30
5868;DHT22;2960;49.142;7.768;2022-08-21T13:45:20;29.60;36.40
5868;DHT22;2960;49.142;7.768;2022-08-21T13:47:52;29.60;36.50
5868;DHT22;2960;49.142;7.768;2022-08-21T13:50:22;29.50;36.60
5868;DHT22;2960;49.142;7.768;2022-08-21T13:52:57;29.50;36.80
5868;DHT22;2960;49.142;7.768;2022-08-21T13:55:35;29.40;36.40
5868;DHT22;2960;49.142;7.768;2022-08-21T13:58:05;29.30;36.20
5868;DHT22;2960;49.142;7.768;2022-08-21T14:00:34;29.30;36.20
5868;DHT22;2960;49.142;7.768;2022-08-21T14:03:06;29.20;36.30
5868;DHT22;2960;49.142;7.768;2022-08-21T14:05:37;29.20;36.40
5868;DHT22;2960;49.142;7.768;2022-08-21T14:08:18;29.20;36.60
5868;DHT22;2960;49.142;7.768;2022-08-21T14:10:51;29.20;36.70
5868;DHT22;2960;49.142;7.768;2022-08-21T14:13:33;29.10;36.50
5868;DHT22;2960;49.142;7.768;2022-08-21T14:16:14;29.10;36.40
5868;DHT22;2960;49.142;7.768;2022-08-21T14:18:52;29.10;36.50
5868;DHT22;2960;49.142;7.768;2022-08-21T14:21:32;29.00;36.90
5868;DHT22;2960;49.142;7.768;2022-08-21T14:24:10;29.00;36.30
5868;DHT22;2960;49.142;7.768;2022-08-21T14:26:45;29.00;36.00
5868;DHT22;2960;49.142;7.768;2022-08-21T14:29:17;29.00;36.00
5868;DHT22;2960;49.142;7.768;2022-08-21T14:31:50;28.90;36.00
5868;DHT22;2960;49.142;7.768;2022-08-21T14:34:20;28.90;36.00
5868;DHT22;2960;49.142;7.768;2022-08-21T14:36:49;28.90;36.10
5868;DHT22;2960;49.142;7.768;2022-08-21T14:39:16;28.90;36.30
5868;DHT22;2960;49.142;7.768;2022-08-21T14:41:44;28.80;36.40
5868;DHT22;2960;49.142;7.768;2022-08-21T14:44:14;28.80;36.40
5868;DHT22;2960;49.142;7.768;2022-08-21T14:46:43;28.80;36.70
5868;DHT22;2960;49.142;7.768;2022-08-21T14:49:10;28.70;36.80
5868;DHT22;2960;49.142;7.768;2022-08-21T14:51:39;28.70;37.00
5868;DHT22;2960;49.142;7.768;2022-08-21T14:54:06;28.70;37.70
5868;DHT22;2960;49.142;7.768;2022-08-21T14:56:34;28.60;37.00
5868;DHT22;2960;49.142;7.768;2022-08-21T14:59:05;28.60;37.70
5868;DHT22;2960;49.142;7.768;2022-08-21T15:01:43;28.60;37.10
5868;DHT22;2960;49.142;7.768;2022-08-21T15:04:11;28.50;37.20
5868;DHT22;2960;49.142;7.768;2022-08-21T15:06:39;28.50;37.10
5868;DHT22;2960;49.142;7.768;2022-08-21T15:09:06;28.40;37.10
5868;DHT22;2960;49.142;7.768;2022-08-21T15:11:34;28.40;37.00
5868;DHT22;2960;49.142;7.768;2022-08-21T15:14:03;28.30;37.00
5868;DHT22;2960;49.142;7.768;2022-08-21T15:16:33;28.30;37.00
5868;DHT22;2960;49.142;7.768;2022-08-21T15:19:01;28.30;36.90
5868;DHT22;2960;49.142;7.768;2022-08-21T15:21:28;28.20;36.90
5868;DHT22;2960;49.142;7.768;2022-08-21T15:23:56;28.30;37.00
5868;DHT22;2960;49.142;7.768;2022-08-21T15:26:24;28.20;36.70
5868;DHT22;2960;49.142;7.768;2022-08-21T15:28:51;28.20;36.80
5868;DHT22;2960;49.142;7.768;2022-08-21T15:31:18;28.20;36.80
5868;DHT22;2960;49.142;7.768;2022-08-21T15:33:45;28.10;36.90
5868;DHT22;2960;49.142;7.768;2022-08-21T15:36:12;28.10;37.00
5868;DHT22;2960;49.142;7.768;2022-08-21T15:38:39;28.10;37.20
5868;DHT22;2960;49.142;7.768;2022-08-21T15:41:08;28.10;37.30
5868;DHT22;2960;49.142;7.768;2022-08-21T15:43:39;28.00;37.30
5868;DHT22;2960;49.142;7.768;2022-08-21T15:46:10;28.00;37.40
5868;DHT22;2960;49.142;7.768;2022-08-21T15:48:39;28.00;37.50
5868;DHT22;2960;49.142;7.768;2022-08-21T15:51:06;27.90;37.60
5868;DHT22;2960;49.142;7.768;2022-08-21T15:53:33;27.90;37.70
5868;DHT22;2960;49.142;7.768;2022-08-21T15:56:04;27.80;37.80
5868;DHT22;2960;49.142;7.768;2022-08-21T15:58:33;27.70;37.90
5868;DHT22;2960;49.142;7.768;2022-08-21T16:01:00;27.70;38.00
5868;DHT22;2960;49.142;7.768;2022-08-21T16:03:28;27.60;38.10
5868;DHT22;2960;49.142;7.768;2022-08-21T16:05:55;27.60;38.30
5868;DHT22;2960;49.142;7.768;2022-08-21T16:08:23;27.50;38.40
5868;DHT22;2960;49.142;7.768;2022-08-21T16:10:52;27.50;38.50
5868;DHT22;2960;49.142;7.768;2022-08-21T16:13:24;27.50;38.80
5868;DHT22;2960;49.142;7.768;2022-08-21T16:15:54;27.50;39.20
5868;DHT22;2960;49.142;7.768;2022-08-21T16:18:22;27.50;39.40
5868;DHT22;2960;49.142;7.768;2022-08-21T16:20:51;27.50;39.50
5868;DHT22;2960;49.142;7.768;2022-08-21T16:23:18;27.50;39.70
5868;DHT22;2960;49.142;7.768;2022-08-21T16:25:46;27.50;39.80
5868;DHT22;2960;49.142;7.768;2022-08-21T16:28:15;27.50;40.00